createdAt,value
2018-03-31T00:00:54.614Z,10.90
2018-03-31T00:03:21.484Z,11.02
2018-03-31T00:05:48.404Z,10.91
2018-03-31T00:08:15.800Z,11.13
2018-03-31T00:10:42.697Z,11.09
2018-03-31T00:13:10.105Z,10.78
2018-03-31T00:15:37.020Z,10.75
2018-03-31T00:18:03.911Z,10.66
2018-03-31T00:20:30.774Z,10.72
2018-03-31T00:22:57.668Z,10.69
2018-03-31T00:25:24.569Z,10.68
2018-03-31T00:27:51.420Z,10.56
2018-03-31T00:30:18.353Z,10.59
2018-03-31T00:32:46.092Z,10.60
2018-03-31T00:35:13.631Z,10.48
2018-03-31T00:37:40.488Z,10.46
2018-03-31T00:40:07.352Z,10.24
2018-03-31T00:42:34.277Z,10.30
2018-03-31T00:45:01.112Z,10.16
2018-03-31T00:47:27.960Z,10.29
2018-03-31T00:49:54.807Z,10.38
2018-03-31T00:52:21.661Z,10.37
2018-03-31T00:54:48.511Z,10.08
2018-03-31T00:57:16.111Z,10.13
2018-03-31T00:59:43.354Z,10.21
2018-03-31T01:02:10.294Z,10.57
2018-03-31T01:04:37.083Z,10.68
2018-03-31T01:07:03.944Z,10.69
2018-03-31T01:09:30.782Z,11.01
2018-03-31T01:11:58.274Z,10.54
2018-03-31T01:14:25.135Z,10.50
2018-03-31T01:16:52.000Z,10.35
2018-03-31T01:19:20.282Z,10.32
2018-03-31T01:21:47.135Z,10.49
2018-03-31T01:24:13.968Z,10.85
2018-03-31T01:26:40.834Z,10.48
2018-03-31T01:29:07.678Z,10.58
2018-03-31T01:31:34.532Z,10.16
2018-03-31T01:34:01.446Z,10.59
2018-03-31T01:36:28.423Z,10.58
2018-03-31T01:38:55.302Z,10.92
2018-03-31T01:41:22.216Z,10.50
2018-03-31T01:43:49.961Z,10.33
2018-03-31T01:46:16.848Z,10.08
2018-03-31T01:48:43.705Z,9.99
2018-03-31T01:51:10.528Z,10.05
2018-03-31T01:53:37.401Z,10.13
2018-03-31T01:56:04.322Z,10.53
2018-03-31T01:58:31.232Z,10.33
2018-03-31T02:00:58.068Z,10.18
2018-03-31T02:03:25.257Z,10.23
2018-03-31T02:05:52.456Z,10.15
2018-03-31T02:08:20.128Z,10.22
2018-03-31T02:10:46.970Z,10.12
2018-03-31T02:13:13.828Z,10.32
2018-03-31T02:15:40.681Z,10.17
2018-03-31T02:18:07.617Z,10.24
2018-03-31T02:20:34.432Z,10.25
2018-03-31T02:23:01.276Z,10.41
2018-03-31T02:25:31.860Z,10.09
2018-03-31T02:27:59.167Z,10.42
2018-03-31T02:30:27.238Z,10.40
2018-03-31T02:32:54.091Z,10.32
2018-03-31T02:35:20.930Z,10.30
2018-03-31T02:37:47.786Z,10.13
2018-03-31T02:40:14.650Z,10.34
2018-03-31T02:42:41.511Z,10.24
2018-03-31T02:45:08.395Z,10.12
2018-03-31T02:47:35.232Z,10.05
2018-03-31T02:50:02.217Z,10.09
2018-03-31T02:52:29.110Z,10.24
2018-03-31T02:54:57.677Z,10.21
2018-03-31T02:57:24.552Z,10.25
2018-03-31T02:59:51.595Z,10.28
2018-03-31T03:02:19.208Z,10.15
2018-03-31T03:04:46.090Z,10.32
2018-03-31T03:07:12.955Z,10.59
2018-03-31T03:09:39.794Z,10.39
2018-03-31T03:12:06.637Z,10.27
2018-03-31T03:14:33.714Z,10.60
2018-03-31T03:17:00.603Z,10.16
2018-03-31T03:19:27.464Z,10.58
2018-03-31T03:21:54.366Z,10.29
2018-03-31T03:24:21.209Z,10.16
2018-03-31T03:26:48.065Z,10.47
2018-03-31T03:29:15.032Z,10.73
2018-03-31T03:31:41.874Z,10.96
2018-03-31T03:34:08.731Z,10.63
2018-03-31T03:36:35.659Z,10.46
2018-03-31T03:39:03.268Z,10.39
2018-03-31T03:41:31.185Z,10.90
2018-03-31T03:43:58.120Z,10.74
2018-03-31T03:46:25.152Z,10.56
2018-03-31T03:48:51.994Z,11.00
2018-03-31T03:51:18.958Z,10.40
2018-03-31T03:53:45.901Z,10.35
2018-03-31T03:56:12.808Z,10.09
2018-03-31T03:58:39.701Z,10.26
2018-03-31T04:01:06.538Z,10.06
2018-03-31T04:03:34.188Z,9.93
2018-03-31T04:06:01.103Z,10.25
2018-03-31T04:08:28.001Z,10.13
2018-03-31T04:10:54.852Z,10.01
2018-03-31T04:13:21.771Z,10.09
2018-03-31T04:15:48.620Z,10.15
2018-03-31T04:18:15.487Z,10.04
2018-03-31T04:20:42.387Z,10.14
2018-03-31T04:23:09.229Z,10.22
2018-03-31T04:25:36.144Z,10.29
2018-03-31T04:28:03.018Z,10.13
2018-03-31T04:30:30.793Z,10.04
2018-03-31T04:32:57.684Z,10.21
2018-03-31T04:35:24.546Z,10.27
2018-03-31T04:37:51.441Z,10.49
2018-03-31T04:40:18.300Z,10.38
2018-03-31T04:42:45.624Z,10.23
2018-03-31T04:45:12.530Z,10.03
2018-03-31T04:47:39.437Z,9.89
2018-03-31T04:50:06.290Z,9.98
2018-03-31T04:52:33.293Z,9.92
2018-03-31T04:55:00.156Z,9.70
2018-03-31T04:57:27.029Z,9.72
2018-03-31T04:59:53.883Z,9.81
2018-03-31T05:02:20.935Z,9.61
2018-03-31T05:04:47.846Z,9.61
2018-03-31T05:07:14.663Z,9.59
2018-03-31T05:09:41.536Z,9.71
2018-03-31T05:12:08.385Z,9.61
2018-03-31T05:14:36.677Z,9.54
2018-03-31T05:17:03.515Z,9.51
2018-03-31T05:19:30.373Z,9.56
2018-03-31T05:21:57.501Z,9.74
2018-03-31T05:24:24.389Z,9.57
2018-03-31T05:26:52.181Z,9.49
2018-03-31T05:29:19.027Z,9.83
2018-03-31T05:31:45.957Z,9.76
2018-03-31T05:34:12.828Z,9.88
2018-03-31T05:36:39.661Z,9.75
2018-03-31T05:39:06.509Z,9.91
2018-03-31T05:41:33.375Z,9.94
2018-03-31T05:44:00.224Z,9.72
2018-03-31T05:46:27.081Z,9.67
2018-03-31T05:48:53.943Z,9.56
2018-03-31T05:51:21.238Z,9.44
2018-03-31T05:53:48.117Z,9.47
2018-03-31T05:56:15.016Z,9.67
2018-03-31T05:58:41.858Z,9.75
2018-03-31T06:01:08.701Z,9.88
2018-03-31T06:03:35.563Z,9.97
2018-03-31T06:06:02.400Z,9.67
2018-03-31T06:08:29.263Z,9.46
2018-03-31T06:10:56.101Z,9.71
2018-03-31T06:13:22.958Z,9.71
2018-03-31T06:15:49.806Z,9.70
2018-03-31T06:18:16.639Z,9.74
2018-03-31T06:20:43.557Z,9.76
2018-03-31T06:23:10.410Z,9.78
2018-03-31T06:25:38.671Z,9.70
2018-03-31T06:28:06.082Z,9.71
2018-03-31T06:30:33.007Z,9.85
2018-03-31T06:33:00.026Z,9.76
2018-03-31T06:35:26.885Z,9.77
2018-03-31T06:37:53.768Z,9.77
2018-03-31T06:40:22.864Z,9.72
2018-03-31T06:42:49.727Z,9.87
2018-03-31T06:45:18.251Z,10.05
2018-03-31T06:47:45.259Z,10.21
2018-03-31T06:50:12.143Z,10.41
2018-03-31T06:52:39.045Z,10.47
2018-03-31T06:55:05.966Z,10.14
2018-03-31T06:57:32.884Z,10.22
2018-03-31T06:59:59.725Z,10.14
2018-03-31T07:02:27.089Z,10.29
2018-03-31T07:04:54.025Z,10.18
2018-03-31T07:07:21.632Z,10.15
2018-03-31T07:09:48.601Z,10.33
2018-03-31T07:12:15.440Z,10.08
2018-03-31T07:14:42.322Z,10.39
2018-03-31T07:17:09.250Z,10.24
2018-03-31T07:19:36.293Z,10.14
2018-03-31T07:22:03.161Z,10.41
2018-03-31T07:24:30.026Z,10.71
2018-03-31T07:26:56.902Z,10.89
2018-03-31T07:29:23.870Z,10.38
2018-03-31T07:31:51.648Z,10.31
2018-03-31T07:34:18.771Z,10.52
2018-03-31T07:36:45.846Z,10.75
2018-03-31T07:39:13.443Z,10.55
2018-03-31T07:41:40.369Z,10.65
2018-03-31T07:44:07.609Z,10.60
2018-03-31T07:46:34.857Z,10.66
2018-03-31T07:49:01.703Z,11.00
2018-03-31T07:51:28.583Z,11.31
2018-03-31T07:53:55.489Z,11.23
2018-03-31T07:56:22.361Z,11.08
2018-03-31T07:58:49.207Z,11.15
2018-03-31T08:01:17.430Z,11.23
2018-03-31T08:03:44.287Z,11.60
2018-03-31T08:06:11.162Z,11.54
2018-03-31T08:08:37.998Z,11.15
2018-03-31T08:11:05.228Z,11.41
2018-03-31T08:13:33.921Z,11.32
2018-03-31T08:16:00.785Z,11.64
2018-03-31T08:18:27.788Z,11.61
2018-03-31T08:20:56.288Z,11.40
2018-03-31T08:23:23.140Z,11.51
2018-03-31T08:25:50.010Z,11.68
2018-03-31T08:28:17.042Z,11.71
2018-03-31T08:30:43.916Z,11.84
2018-03-31T08:33:10.807Z,12.10
2018-03-31T08:35:37.648Z,12.33
2018-03-31T08:38:04.765Z,12.05
2018-03-31T08:40:31.740Z,11.93
2018-03-31T08:42:58.707Z,12.48
2018-03-31T08:45:25.574Z,12.46
2018-03-31T08:47:52.420Z,12.60
2018-03-31T08:50:19.301Z,12.76
2018-03-31T08:52:47.834Z,12.71
2018-03-31T08:55:14.753Z,12.82
2018-03-31T08:57:41.611Z,12.84
2018-03-31T09:00:08.584Z,12.78
2018-03-31T09:02:35.440Z,12.72
2018-03-31T09:05:02.287Z,12.92
2018-03-31T09:07:29.139Z,13.26
2018-03-31T09:09:56.104Z,13.07
2018-03-31T09:12:22.953Z,12.80
2018-03-31T09:14:49.804Z,13.07
2018-03-31T09:17:16.747Z,12.56
2018-03-31T09:19:43.627Z,12.89
2018-03-31T09:22:10.803Z,12.75
2018-03-31T09:24:37.739Z,12.85
2018-03-31T09:27:04.577Z,12.51
2018-03-31T09:29:31.466Z,12.89
2018-03-31T09:31:59.367Z,13.50
2018-03-31T09:34:26.224Z,13.48
2018-03-31T09:36:53.085Z,13.77
2018-03-31T09:39:19.924Z,13.93
2018-03-31T09:41:46.755Z,13.59
2018-03-31T09:44:13.669Z,13.80
2018-03-31T09:46:40.601Z,13.80
2018-03-31T09:49:07.387Z,14.30
2018-03-31T09:51:34.238Z,14.21
2018-03-31T09:54:01.089Z,14.32
2018-03-31T09:56:28.043Z,14.26
2018-03-31T09:58:55.264Z,14.44
2018-03-31T10:01:22.489Z,13.97
2018-03-31T10:03:49.357Z,14.08
2018-03-31T10:06:16.210Z,13.91
2018-03-31T10:08:43.060Z,14.08
2018-03-31T10:11:09.925Z,13.97
2018-03-31T10:13:36.759Z,13.64
2018-03-31T10:16:03.692Z,13.35
2018-03-31T10:18:30.534Z,13.87
2018-03-31T10:20:57.499Z,14.00
2018-03-31T10:23:24.325Z,14.14
2018-03-31T10:25:51.211Z,14.34
2018-03-31T10:28:18.138Z,14.57
2018-03-31T10:30:45.768Z,14.74
2018-03-31T10:33:12.997Z,14.71
2018-03-31T10:35:39.823Z,15.05
2018-03-31T10:38:09.727Z,14.72
2018-03-31T10:40:36.678Z,14.43
2018-03-31T10:43:04.016Z,14.97
2018-03-31T10:45:30.906Z,15.06
2018-03-31T10:47:57.743Z,15.05
2018-03-31T10:50:25.877Z,15.38
2018-03-31T10:52:52.840Z,15.35
2018-03-31T10:55:19.922Z,15.14
2018-03-31T10:57:46.863Z,14.66
2018-03-31T11:00:13.718Z,14.69
2018-03-31T11:02:40.646Z,14.94
2018-03-31T11:05:07.485Z,15.20
2018-03-31T11:07:34.351Z,15.07
2018-03-31T11:10:01.206Z,14.71
2018-03-31T11:12:28.344Z,14.96
2018-03-31T11:14:55.704Z,15.26
2018-03-31T11:17:22.789Z,15.22
2018-03-31T11:19:49.930Z,15.32
2018-03-31T11:22:17.183Z,15.22
2018-03-31T11:24:46.898Z,15.11
2018-03-31T11:27:15.097Z,15.58
2018-03-31T11:29:41.945Z,15.75
2018-03-31T11:32:08.789Z,15.76
2018-03-31T11:34:35.635Z,16.37
2018-03-31T11:37:02.479Z,16.64
2018-03-31T11:39:29.337Z,16.09
2018-03-31T11:41:56.177Z,16.53
2018-03-31T11:44:23.070Z,16.77
2018-03-31T11:46:49.912Z,16.83
2018-03-31T11:49:16.763Z,17.30
2018-03-31T11:51:43.599Z,17.36
2018-03-31T11:54:10.463Z,17.00
2018-03-31T11:56:37.334Z,17.61
2018-03-31T11:59:04.222Z,17.43
2018-03-31T12:01:31.297Z,17.73
2018-03-31T12:03:58.149Z,17.34
2018-03-31T12:06:25.005Z,17.05
2018-03-31T12:08:51.843Z,16.95
2018-03-31T12:11:18.688Z,16.58
2018-03-31T12:13:45.564Z,16.74
2018-03-31T12:16:12.418Z,17.35
2018-03-31T12:18:39.257Z,18.13
2018-03-31T12:21:06.115Z,18.72
2018-03-31T12:23:32.976Z,19.74
2018-03-31T12:26:00.106Z,20.11
2018-03-31T12:28:27.065Z,20.95
2018-03-31T12:30:53.910Z,21.09
2018-03-31T12:33:20.801Z,21.85
2018-03-31T12:35:47.616Z,22.23
2018-03-31T12:38:14.553Z,22.48
2018-03-31T12:40:41.408Z,23.09
2018-03-31T12:43:08.247Z,22.44
2018-03-31T12:45:35.396Z,22.21
2018-03-31T12:48:04.862Z,23.10
2018-03-31T12:50:31.723Z,23.84
2018-03-31T12:52:58.612Z,22.77
2018-03-31T12:55:25.521Z,22.12
2018-03-31T12:57:55.439Z,22.11
2018-03-31T13:00:23.518Z,22.40
2018-03-31T13:02:50.554Z,23.00
2018-03-31T13:05:17.440Z,22.40
2018-03-31T13:07:44.764Z,22.09
2018-03-31T13:10:11.728Z,21.22
2018-03-31T13:12:38.629Z,21.09
2018-03-31T13:15:05.505Z,19.64
2018-03-31T13:17:32.536Z,19.41
2018-03-31T13:20:00.898Z,18.83
2018-03-31T13:22:27.857Z,19.35
2018-03-31T13:24:54.753Z,18.73
2018-03-31T13:27:22.284Z,19.11
2018-03-31T13:29:49.147Z,19.48
2018-03-31T13:32:16.092Z,19.84
2018-03-31T13:34:44.578Z,20.29
2018-03-31T13:37:11.473Z,20.65
2018-03-31T13:39:38.316Z,22.10
2018-03-31T13:42:05.190Z,22.40
2018-03-31T13:44:32.046Z,21.04
2018-03-31T13:46:58.932Z,20.89
2018-03-31T13:49:26.715Z,20.35
2018-03-31T13:51:53.630Z,20.16
2018-03-31T13:54:20.469Z,19.33
2018-03-31T13:56:47.377Z,20.85
2018-03-31T13:59:14.171Z,22.01
2018-03-31T14:01:41.018Z,22.84
2018-03-31T14:04:07.882Z,22.11
2018-03-31T14:06:35.335Z,22.78
2018-03-31T14:09:02.195Z,23.41
2018-03-31T14:11:29.042Z,24.24
2018-03-31T14:13:55.887Z,24.95
2018-03-31T14:16:23.623Z,26.34
2018-03-31T14:18:50.480Z,26.43
2018-03-31T14:21:18.614Z,26.58
2018-03-31T14:23:45.460Z,27.12
2018-03-31T14:26:12.341Z,27.46
2018-03-31T14:28:39.254Z,27.42
2018-03-31T14:31:06.104Z,24.36
2018-03-31T14:33:32.983Z,22.74
2018-03-31T14:35:59.873Z,21.91
2018-03-31T14:38:26.771Z,22.88
2018-03-31T14:40:53.752Z,23.47
2018-03-31T14:43:22.393Z,25.65
2018-03-31T14:45:49.256Z,27.20
2018-03-31T14:48:16.169Z,26.00
2018-03-31T14:50:43.062Z,25.87
2018-03-31T14:53:09.977Z,25.68
2018-03-31T14:55:37.216Z,24.51
2018-03-31T14:58:04.065Z,23.52
2018-03-31T15:00:30.908Z,22.56
2018-03-31T15:02:57.804Z,22.21
2018-03-31T15:05:24.770Z,21.72
2018-03-31T15:07:51.637Z,21.99
2018-03-31T15:10:19.028Z,22.58
2018-03-31T15:12:46.773Z,22.46
2018-03-31T15:15:13.656Z,21.85
2018-03-31T15:17:40.510Z,21.31
2018-03-31T15:20:07.422Z,21.05
2018-03-31T15:22:34.305Z,20.81
2018-03-31T15:25:03.480Z,20.35
2018-03-31T15:27:30.341Z,20.09
2018-03-31T15:29:57.171Z,19.58
2018-03-31T15:32:24.020Z,19.36
2018-03-31T15:34:52.059Z,19.64
2018-03-31T15:37:18.984Z,19.80
2018-03-31T15:39:46.954Z,20.06
2018-03-31T15:42:13.983Z,19.95
2018-03-31T15:44:41.993Z,19.65
2018-03-31T15:47:09.428Z,19.51
2018-03-31T15:49:36.275Z,19.54
2018-03-31T15:52:03.131Z,19.36
2018-03-31T15:54:30.078Z,18.83
2018-03-31T15:56:57.032Z,18.99
2018-03-31T15:59:23.990Z,20.45
2018-03-31T16:01:50.846Z,21.74
2018-03-31T16:04:17.682Z,22.70
2018-03-31T16:06:44.559Z,22.69
2018-03-31T16:09:11.567Z,21.47
2018-03-31T16:11:39.003Z,21.64
2018-03-31T16:14:05.846Z,22.25
2018-03-31T16:16:33.716Z,21.45
2018-03-31T16:19:00.590Z,21.31
2018-03-31T16:21:27.770Z,21.36
2018-03-31T16:23:54.685Z,20.69
2018-03-31T16:26:21.556Z,19.30
2018-03-31T16:28:48.424Z,19.28
2018-03-31T16:31:15.290Z,18.87
2018-03-31T16:33:42.147Z,19.50
2018-03-31T16:36:09.065Z,22.07
2018-03-31T16:38:35.924Z,21.97
2018-03-31T16:41:02.768Z,20.53
2018-03-31T16:43:29.639Z,19.44
2018-03-31T16:45:56.481Z,19.48
2018-03-31T16:48:24.357Z,19.12
2018-03-31T16:50:51.293Z,19.15
2018-03-31T16:53:18.528Z,19.15
2018-03-31T16:55:45.382Z,18.77
2018-03-31T16:58:13.770Z,18.65
2018-03-31T17:00:40.631Z,18.50
2018-03-31T17:03:07.522Z,18.53
2018-03-31T17:05:34.371Z,18.49
2018-03-31T17:08:01.705Z,18.12
2018-03-31T17:10:28.715Z,18.17
2018-03-31T17:12:55.552Z,18.13
2018-03-31T17:15:22.436Z,17.98
2018-03-31T17:17:49.277Z,18.01
2018-03-31T17:20:16.151Z,17.60
2018-03-31T17:22:43.020Z,17.39
2018-03-31T17:25:09.864Z,17.64
2018-03-31T17:27:36.705Z,17.61
2018-03-31T17:30:03.564Z,17.53
2018-03-31T17:32:30.408Z,16.92
2018-03-31T17:34:57.285Z,17.00
2018-03-31T17:37:24.365Z,17.02
2018-03-31T17:39:51.226Z,16.84
2018-03-31T17:42:18.081Z,17.08
2018-03-31T17:44:45.003Z,17.03
2018-03-31T17:47:11.898Z,16.89
2018-03-31T17:49:38.754Z,16.87
2018-03-31T17:52:05.620Z,17.12
2018-03-31T17:54:32.460Z,16.91
2018-03-31T17:56:59.317Z,16.83
2018-03-31T17:59:26.184Z,16.11
2018-03-31T18:01:53.042Z,16.31
2018-03-31T18:04:19.888Z,16.39
2018-03-31T18:06:46.994Z,16.48
2018-03-31T18:09:13.849Z,16.72
2018-03-31T18:11:40.809Z,16.57
2018-03-31T18:14:07.665Z,16.43
2018-03-31T18:16:34.534Z,15.96
2018-03-31T18:19:01.743Z,15.95
2018-03-31T18:21:28.584Z,15.75
2018-03-31T18:23:55.441Z,15.76
2018-03-31T18:26:22.361Z,15.97
2018-03-31T18:28:49.213Z,15.87
2018-03-31T18:31:16.097Z,15.69
2018-03-31T18:33:42.949Z,15.52
2018-03-31T18:36:09.829Z,15.64
2018-03-31T18:38:36.678Z,15.82
2018-03-31T18:41:03.528Z,15.90
2018-03-31T18:43:30.406Z,15.54
2018-03-31T18:45:57.262Z,15.74
2018-03-31T18:48:25.309Z,15.61
2018-03-31T18:50:52.151Z,15.52
2018-03-31T18:53:19.063Z,15.44
2018-03-31T18:55:45.941Z,15.75
2018-03-31T18:58:13.569Z,15.93
2018-03-31T19:00:40.429Z,15.73
2018-03-31T19:03:07.466Z,15.51
2018-03-31T19:05:34.317Z,15.18
2018-03-31T19:08:01.220Z,15.18
2018-03-31T19:10:28.091Z,15.29
2018-03-31T19:12:54.987Z,14.95
2018-03-31T19:15:21.898Z,15.04
2018-03-31T19:17:48.748Z,15.08
2018-03-31T19:20:18.421Z,15.11
2018-03-31T19:22:45.270Z,15.22
2018-03-31T19:25:17.755Z,15.06
2018-03-31T19:27:45.022Z,14.91
2018-03-31T19:30:11.884Z,14.85
2018-03-31T19:32:38.740Z,14.91
2018-03-31T19:35:05.653Z,14.91
2018-03-31T19:37:33.985Z,14.71
2018-03-31T19:40:00.847Z,14.94
2018-03-31T19:42:27.762Z,15.15
2018-03-31T19:44:55.046Z,14.92
2018-03-31T19:47:21.881Z,14.88
2018-03-31T19:49:48.733Z,14.87
2018-03-31T19:52:15.613Z,14.98
2018-03-31T19:54:42.496Z,15.00
2018-03-31T19:57:09.346Z,14.71
2018-03-31T19:59:36.201Z,14.93
2018-03-31T20:02:03.102Z,14.70
2018-03-31T20:04:29.980Z,14.82
2018-03-31T20:06:56.846Z,14.52
2018-03-31T20:09:24.669Z,14.67
2018-03-31T20:11:51.612Z,14.46
2018-03-31T20:14:18.528Z,14.44
2018-03-31T20:16:45.365Z,14.36
2018-03-31T20:19:12.213Z,14.41
2018-03-31T20:21:39.112Z,14.27
2018-03-31T20:24:05.961Z,14.40
2018-03-31T20:26:33.326Z,13.99
2018-03-31T20:29:00.369Z,13.85
2018-03-31T20:31:27.289Z,13.71
2018-03-31T20:33:54.951Z,14.03
2018-03-31T20:36:21.842Z,13.64
2018-03-31T20:38:49.150Z,13.55
2018-03-31T20:41:15.988Z,13.78
2018-03-31T20:43:43.690Z,13.90
2018-03-31T20:46:12.455Z,13.89
2018-03-31T20:48:39.349Z,13.83
2018-03-31T20:51:07.038Z,13.67
2018-03-31T20:53:33.910Z,13.53
2018-03-31T20:56:00.813Z,13.54
2018-03-31T20:58:27.651Z,13.50
2018-03-31T21:00:57.516Z,13.57
2018-03-31T21:03:25.225Z,13.68
2018-03-31T21:05:52.092Z,13.73
2018-03-31T21:08:19.216Z,13.57
2018-03-31T21:10:46.057Z,13.66
2018-03-31T21:13:12.927Z,13.72
2018-03-31T21:15:39.797Z,13.45
2018-03-31T21:18:07.862Z,13.74
2018-03-31T21:20:34.690Z,13.80
2018-03-31T21:23:01.532Z,13.39
2018-03-31T21:25:28.385Z,13.44
2018-03-31T21:27:55.327Z,13.68
2018-03-31T21:30:23.685Z,13.25
2018-03-31T21:32:50.811Z,13.26
2018-03-31T21:35:17.692Z,13.34
2018-03-31T21:37:44.638Z,13.37
2018-03-31T21:40:11.506Z,13.45
2018-03-31T21:42:38.362Z,13.22
2018-03-31T21:45:05.258Z,13.08
2018-03-31T21:47:32.128Z,12.87
2018-03-31T21:50:01.934Z,12.88
2018-03-31T21:52:28.831Z,13.03
2018-03-31T21:54:56.560Z,13.10
2018-03-31T21:57:23.469Z,13.02
2018-03-31T21:59:50.641Z,13.28
2018-03-31T22:02:19.378Z,13.36
2018-03-31T22:04:46.232Z,13.69
2018-03-31T22:07:13.110Z,13.37
2018-03-31T22:09:39.970Z,13.23
2018-03-31T22:12:07.179Z,13.32
2018-03-31T22:14:39.641Z,13.59
2018-03-31T22:17:06.491Z,13.34
2018-03-31T22:19:33.397Z,13.44
2018-03-31T22:22:00.287Z,13.63
2018-03-31T22:24:28.061Z,13.79
2018-03-31T22:26:55.633Z,14.11
2018-03-31T22:29:22.949Z,13.95
2018-03-31T22:31:49.845Z,13.80
2018-03-31T22:34:16.712Z,13.64
2018-03-31T22:36:43.562Z,13.29
2018-03-31T22:39:10.625Z,13.20
2018-03-31T22:41:37.452Z,13.15
2018-03-31T22:44:04.311Z,13.25
2018-03-31T22:46:31.195Z,13.24
2018-03-31T22:48:58.034Z,13.30
2018-03-31T22:51:25.702Z,13.35
2018-03-31T22:53:52.624Z,13.47
2018-03-31T22:56:19.468Z,13.25
2018-03-31T22:58:46.341Z,13.57
2018-03-31T23:01:13.194Z,13.43
2018-03-31T23:03:40.065Z,13.53
2018-03-31T23:06:06.924Z,13.33
2018-03-31T23:08:33.778Z,12.86
2018-03-31T23:11:00.666Z,12.96
2018-03-31T23:13:27.510Z,13.33
2018-03-31T23:15:54.346Z,12.88
2018-03-31T23:18:21.222Z,12.97
2018-03-31T23:20:48.171Z,12.93
2018-03-31T23:23:15.423Z,12.73
2018-03-31T23:25:42.279Z,12.96
2018-03-31T23:28:09.396Z,13.24
2018-03-31T23:30:36.938Z,12.89
2018-03-31T23:33:04.603Z,12.99
2018-03-31T23:35:31.476Z,12.79
2018-03-31T23:37:58.322Z,12.70
2018-03-31T23:40:25.985Z,12.72
2018-03-31T23:42:52.835Z,13.18
2018-03-31T23:45:19.729Z,13.21
2018-03-31T23:47:47.477Z,13.45
2018-03-31T23:50:14.520Z,12.89
2018-03-31T23:52:41.382Z,12.90
2018-03-31T23:55:08.230Z,12.76
2018-03-31T23:57:35.110Z,13.00
